createdAt,value
2023-04-16T00:00:38.346Z,20.35
2023-04-16T00:03:05.160Z,20.34
2023-04-16T00:05:31.898Z,20.33
2023-04-16T00:07:58.451Z,20.33
2023-04-16T00:10:25.005Z,20.31
2023-04-16T00:12:51.536Z,20.31
2023-04-16T00:15:18.103Z,20.29
2023-04-16T00:17:45.176Z,20.29
2023-04-16T00:20:11.885Z,20.28
2023-04-16T00:22:38.411Z,20.27
2023-04-16T00:25:05.557Z,20.26
2023-04-16T00:27:32.205Z,20.25
2023-04-16T00:29:58.702Z,20.25
2023-04-16T00:32:25.369Z,20.23
2023-04-16T00:34:51.874Z,20.22
2023-04-16T00:37:18.427Z,20.21
2023-04-16T00:39:44.911Z,20.21
2023-04-16T00:42:11.519Z,20.20
2023-04-16T00:44:38.081Z,20.19
2023-04-16T00:47:04.936Z,20.19
2023-04-16T00:49:31.853Z,20.18
2023-04-16T00:51:58.421Z,20.17
2023-04-16T00:54:25.405Z,20.17
2023-04-16T00:56:52.045Z,20.17
2023-04-16T00:59:19.824Z,20.16
2023-04-16T01:01:46.413Z,20.15
2023-04-16T01:04:13.230Z,20.15
2023-04-16T01:06:39.860Z,20.13
2023-04-16T01:09:06.575Z,20.13
2023-04-16T01:11:33.226Z,20.13
2023-04-16T01:13:59.786Z,20.13
2023-04-16T01:16:26.874Z,20.12
2023-04-16T01:18:53.590Z,20.10
2023-04-16T01:21:20.078Z,20.11
2023-04-16T01:23:46.576Z,20.10
2023-04-16T01:26:13.097Z,20.09
2023-04-16T01:28:40.521Z,20.08
2023-04-16T01:31:07.125Z,20.08
2023-04-16T01:33:33.685Z,20.08
2023-04-16T01:36:00.266Z,20.07
2023-04-16T01:38:26.765Z,20.06
2023-04-16T01:41:00.254Z,20.06
2023-04-16T01:43:26.842Z,20.06
2023-04-16T01:46:11.083Z,20.05
2023-04-16T01:48:37.741Z,20.05
2023-04-16T01:51:05.031Z,20.04
2023-04-16T01:53:31.646Z,20.03
2023-04-16T01:55:58.120Z,20.03
2023-04-16T01:58:24.891Z,20.03
2023-04-16T02:00:51.447Z,20.02
2023-04-16T02:03:18.702Z,20.00
2023-04-16T02:05:45.364Z,20.00
2023-04-16T02:08:11.856Z,19.99
2023-04-16T02:10:38.391Z,19.98
2023-04-16T02:13:05.032Z,19.96
2023-04-16T02:15:31.561Z,19.96
2023-04-16T02:17:58.215Z,19.96
2023-04-16T02:20:24.817Z,19.95
2023-04-16T02:22:51.327Z,19.93
2023-04-16T02:25:17.957Z,19.92
2023-04-16T02:27:44.478Z,19.91
2023-04-16T02:30:11.524Z,19.90
2023-04-16T02:32:38.034Z,19.89
2023-04-16T02:35:04.972Z,19.88
2023-04-16T02:37:31.496Z,19.88
2023-04-16T02:39:57.987Z,19.85
2023-04-16T02:42:24.688Z,19.85
2023-04-16T02:44:51.214Z,19.84
2023-04-16T02:47:17.730Z,19.84
2023-04-16T02:49:44.498Z,19.82
2023-04-16T02:52:11.088Z,19.82
2023-04-16T02:54:37.660Z,19.81
2023-04-16T02:57:04.278Z,19.80
2023-04-16T02:59:30.765Z,19.79
2023-04-16T03:01:57.336Z,19.78
2023-04-16T03:04:23.972Z,19.78
2023-04-16T03:06:50.509Z,19.77
2023-04-16T03:09:17.328Z,19.76
2023-04-16T03:11:43.889Z,19.76
2023-04-16T03:14:10.449Z,19.75
2023-04-16T03:16:36.976Z,19.75
2023-04-16T03:19:03.614Z,19.73
2023-04-16T03:21:30.140Z,19.72
2023-04-16T03:23:57.153Z,19.72
2023-04-16T03:26:23.704Z,19.70
2023-04-16T03:28:50.226Z,19.69
2023-04-16T03:31:16.976Z,19.69
2023-04-16T03:33:43.593Z,19.69
2023-04-16T03:36:10.363Z,19.68
2023-04-16T03:38:36.916Z,19.66
2023-04-16T03:41:03.609Z,19.67
2023-04-16T03:43:30.316Z,19.65
2023-04-16T03:45:57.175Z,19.64
2023-04-16T03:48:23.706Z,19.64
2023-04-16T03:50:50.324Z,19.63
2023-04-16T03:53:16.957Z,19.62
2023-04-16T03:55:43.628Z,19.61
2023-04-16T03:58:10.201Z,19.60
2023-04-16T04:00:36.880Z,19.60
2023-04-16T04:03:03.499Z,19.60
2023-04-16T04:05:30.280Z,19.59
2023-04-16T04:07:56.898Z,19.58
2023-04-16T04:10:23.383Z,19.57
2023-04-16T04:12:49.940Z,19.56
2023-04-16T04:15:16.551Z,19.56
2023-04-16T04:17:43.296Z,19.56
2023-04-16T04:20:10.462Z,19.55
2023-04-16T04:22:37.028Z,19.54
2023-04-16T04:25:03.710Z,19.54
2023-04-16T04:27:30.336Z,19.53
2023-04-16T04:29:56.946Z,19.51
2023-04-16T04:32:23.531Z,19.51
2023-04-16T04:34:50.350Z,19.52
2023-04-16T04:37:16.878Z,19.52
2023-04-16T04:39:43.416Z,19.51
2023-04-16T04:42:10.007Z,19.51
2023-04-16T04:44:36.592Z,19.50
2023-04-16T04:47:03.159Z,19.48
2023-04-16T04:49:30.737Z,19.49
2023-04-16T04:51:57.252Z,19.48
2023-04-16T04:54:23.785Z,19.48
2023-04-16T04:56:52.553Z,19.47
2023-04-16T04:59:23.119Z,19.47
2023-04-16T05:01:50.350Z,19.45
2023-04-16T05:04:17.379Z,19.47
2023-04-16T05:06:44.224Z,19.46
2023-04-16T05:09:12.008Z,19.46
2023-04-16T05:11:39.265Z,19.48
2023-04-16T05:14:05.848Z,19.52
2023-04-16T05:16:32.455Z,19.58
2023-04-16T05:18:59.109Z,19.64
2023-04-16T05:21:26.404Z,19.70
2023-04-16T05:23:53.038Z,19.75
2023-04-16T05:26:19.620Z,19.80
2023-04-16T05:28:46.437Z,19.82
2023-04-16T05:31:13.023Z,19.85
2023-04-16T05:33:39.553Z,19.88
2023-04-16T05:36:06.472Z,19.92
2023-04-16T05:38:32.951Z,19.93
2023-04-16T05:40:59.546Z,19.96
2023-04-16T05:43:26.019Z,19.96
2023-04-16T05:45:52.625Z,19.97
2023-04-16T05:48:20.097Z,19.96
2023-04-16T05:50:46.702Z,19.95
2023-04-16T05:53:14.256Z,19.92
2023-04-16T05:55:40.863Z,19.89
2023-04-16T05:58:07.408Z,19.86
2023-04-16T06:00:34.084Z,19.84
2023-04-16T06:03:00.938Z,19.82
2023-04-16T06:05:27.893Z,19.82
2023-04-16T06:07:54.484Z,19.81
2023-04-16T06:10:21.079Z,19.81
2023-04-16T06:12:47.791Z,19.79
2023-04-16T06:15:14.466Z,19.73
2023-04-16T06:17:41.281Z,19.69
2023-04-16T06:20:08.265Z,19.62
2023-04-16T06:22:34.806Z,19.58
2023-04-16T06:25:01.398Z,19.56
2023-04-16T06:27:27.960Z,19.55
2023-04-16T06:29:54.536Z,19.54
2023-04-16T06:32:21.161Z,19.55
2023-04-16T06:34:47.720Z,19.54
2023-04-16T06:37:14.963Z,19.56
2023-04-16T06:39:41.532Z,19.56
2023-04-16T06:42:08.126Z,19.57
2023-04-16T06:44:35.682Z,19.57
2023-04-16T06:47:02.320Z,19.59
2023-04-16T06:49:28.974Z,19.61
2023-04-16T06:51:56.255Z,19.64
2023-04-16T06:54:22.782Z,19.65
2023-04-16T06:56:49.292Z,19.67
2023-04-16T06:59:15.833Z,19.70
2023-04-16T07:01:42.656Z,19.71
2023-04-16T07:04:09.406Z,19.73
2023-04-16T07:06:36.120Z,19.74
2023-04-16T07:09:02.664Z,19.77
2023-04-16T07:11:29.342Z,19.78
2023-04-16T07:13:56.810Z,19.80
2023-04-16T07:16:23.648Z,19.80
2023-04-16T07:18:50.361Z,19.80
2023-04-16T07:21:17.000Z,19.82
2023-04-16T07:23:43.519Z,19.82
2023-04-16T07:26:11.536Z,19.83
2023-04-16T07:28:38.131Z,19.83
2023-04-16T07:31:04.814Z,19.84
2023-04-16T07:33:31.322Z,19.83
2023-04-16T07:35:57.885Z,19.84
2023-04-16T07:38:24.421Z,19.83
2023-04-16T07:40:51.350Z,19.84
2023-04-16T07:43:17.845Z,19.85
2023-04-16T07:45:44.361Z,19.86
2023-04-16T07:48:11.222Z,19.85
2023-04-16T07:50:37.826Z,19.85
2023-04-16T07:53:05.863Z,19.83
2023-04-16T07:55:32.434Z,19.83
2023-04-16T07:57:58.994Z,19.81
2023-04-16T08:00:26.331Z,19.80
2023-04-16T08:02:53.013Z,19.79
2023-04-16T08:05:19.844Z,19.78
2023-04-16T08:07:46.460Z,19.78
2023-04-16T08:10:13.142Z,19.77
2023-04-16T08:12:39.897Z,19.76
2023-04-16T08:15:07.425Z,19.74
2023-04-16T08:17:34.876Z,19.73
2023-04-16T08:20:01.770Z,19.73
2023-04-16T08:22:28.389Z,19.73
2023-04-16T08:24:55.100Z,19.71
2023-04-16T08:27:21.615Z,19.71
2023-04-16T08:29:48.622Z,19.70
2023-04-16T08:32:15.247Z,19.70
2023-04-16T08:34:41.971Z,19.69
2023-04-16T08:37:08.776Z,19.69
2023-04-16T08:39:35.524Z,19.68
2023-04-16T08:42:04.670Z,19.67
2023-04-16T08:44:33.758Z,19.67
2023-04-16T08:47:02.279Z,19.69
2023-04-16T08:49:29.487Z,19.70
2023-04-16T08:51:57.048Z,19.71
2023-04-16T08:54:43.217Z,19.72
2023-04-16T08:57:12.555Z,19.72
2023-04-16T08:59:40.385Z,19.73
2023-04-16T09:02:07.389Z,19.75
2023-04-16T09:04:34.455Z,19.75
2023-04-16T09:07:04.559Z,19.77
2023-04-16T09:09:33.436Z,19.78
2023-04-16T09:12:01.336Z,19.79
2023-04-16T09:14:28.730Z,19.80
2023-04-16T09:16:56.127Z,19.83
2023-04-16T09:19:23.705Z,19.84
2023-04-16T09:21:51.105Z,19.86
2023-04-16T09:24:18.577Z,19.87
2023-04-16T09:26:45.418Z,19.89
2023-04-16T09:29:12.259Z,19.89
2023-04-16T09:31:38.934Z,19.92
2023-04-16T09:34:08.502Z,19.92
2023-04-16T09:36:36.298Z,19.93
2023-04-16T09:39:03.922Z,19.96
2023-04-16T09:41:32.716Z,19.97
2023-04-16T09:44:04.609Z,19.97
2023-04-16T09:46:35.615Z,19.96
2023-04-16T09:49:19.992Z,19.95
2023-04-16T09:51:49.661Z,19.94
2023-04-16T09:54:16.491Z,19.95
2023-04-16T09:56:44.776Z,19.93
2023-04-16T09:59:21.749Z,19.91
2023-04-16T10:01:49.949Z,19.93
2023-04-16T10:04:17.038Z,19.93
2023-04-16T10:06:44.120Z,19.93
2023-04-16T10:09:11.109Z,19.93
2023-04-16T10:11:37.917Z,19.94
2023-04-16T10:14:04.522Z,19.94
2023-04-16T10:16:31.312Z,19.95
2023-04-16T10:18:59.130Z,19.96
2023-04-16T10:21:33.579Z,19.97
2023-04-16T10:24:00.606Z,19.97
2023-04-16T10:26:29.424Z,19.98
2023-04-16T10:28:58.358Z,19.99
2023-04-16T10:31:26.261Z,19.99
2023-04-16T10:33:53.280Z,19.99
2023-04-16T10:36:29.099Z,20.00
2023-04-16T10:39:00.666Z,20.01
2023-04-16T10:41:27.673Z,20.03
2023-04-16T10:44:05.850Z,20.03
2023-04-16T10:46:43.605Z,20.03
2023-04-16T10:49:19.235Z,20.02
2023-04-16T10:51:57.028Z,20.00
2023-04-16T10:54:28.808Z,19.99
2023-04-16T10:57:02.226Z,19.97
2023-04-16T10:59:32.174Z,19.97
2023-04-16T11:02:01.536Z,19.97
2023-04-16T11:04:33.232Z,19.96
2023-04-16T11:07:13.984Z,19.96
2023-04-16T11:10:05.048Z,19.95
2023-04-16T11:12:42.434Z,19.96
2023-04-16T11:15:13.410Z,19.97
2023-04-16T11:17:45.705Z,19.96
2023-04-16T11:20:26.207Z,19.97
2023-04-16T11:22:56.653Z,19.98
2023-04-16T11:25:25.083Z,19.99
2023-04-16T11:27:52.594Z,19.98
2023-04-16T11:30:28.367Z,19.99
2023-04-16T11:32:55.320Z,19.99
2023-04-16T11:35:22.051Z,20.00
2023-04-16T11:37:48.836Z,20.01
2023-04-16T11:40:15.529Z,20.03
2023-04-16T11:42:42.783Z,20.04
2023-04-16T11:45:11.281Z,20.04
2023-04-16T11:47:56.837Z,20.04
2023-04-16T11:50:25.681Z,20.05
2023-04-16T11:52:54.241Z,20.06
2023-04-16T11:55:21.670Z,20.06
2023-04-16T11:57:48.753Z,20.06
2023-04-16T12:00:15.989Z,20.06
2023-04-16T12:02:50.940Z,20.07
2023-04-16T12:05:35.205Z,20.07
2023-04-16T12:08:03.833Z,20.10
2023-04-16T12:10:32.287Z,20.11
2023-04-16T12:13:12.197Z,20.11
2023-04-16T12:15:49.666Z,20.12
2023-04-16T12:18:21.370Z,20.12
2023-04-16T12:20:47.997Z,20.08
2023-04-16T12:23:28.995Z,20.03
2023-04-16T12:25:59.602Z,20.00
2023-04-16T12:28:38.378Z,19.95
2023-04-16T12:31:05.834Z,19.93
2023-04-16T12:33:32.680Z,19.93
2023-04-16T12:35:59.294Z,19.96
2023-04-16T12:38:26.890Z,19.99
2023-04-16T12:40:57.002Z,20.03
2023-04-16T12:43:24.093Z,20.07
2023-04-16T12:45:50.639Z,20.11
2023-04-16T12:48:17.193Z,20.16
2023-04-16T12:50:44.376Z,20.23
2023-04-16T12:53:11.686Z,20.27
2023-04-16T12:55:38.329Z,20.32
2023-04-16T12:58:04.959Z,20.35
2023-04-16T13:00:31.542Z,20.37
2023-04-16T13:02:58.177Z,20.39
2023-04-16T13:05:24.853Z,20.40
2023-04-16T13:07:51.482Z,20.41
2023-04-16T13:10:18.102Z,20.40
2023-04-16T13:12:46.525Z,20.41
2023-04-16T13:15:13.075Z,20.41
2023-04-16T13:17:39.603Z,20.41
2023-04-16T13:20:06.586Z,20.41
2023-04-16T13:22:33.639Z,20.41
2023-04-16T13:25:00.398Z,20.41
2023-04-16T13:27:26.939Z,20.42
2023-04-16T13:29:53.728Z,20.42
2023-04-16T13:32:20.398Z,20.44
2023-04-16T13:34:47.155Z,20.44
2023-04-16T13:37:13.883Z,20.45
2023-04-16T13:39:40.605Z,20.47
2023-04-16T13:42:07.194Z,20.48
2023-04-16T13:44:33.889Z,20.48
2023-04-16T13:47:00.798Z,20.50
2023-04-16T13:49:27.381Z,20.51
2023-04-16T13:51:53.912Z,20.50
2023-04-16T13:54:20.528Z,20.51
2023-04-16T13:56:47.078Z,20.50
2023-04-16T13:59:15.619Z,20.49
2023-04-16T14:01:42.310Z,20.50
2023-04-16T14:04:08.879Z,20.50
2023-04-16T14:06:35.502Z,20.49
2023-04-16T14:09:02.201Z,20.49
2023-04-16T14:11:28.969Z,20.48
2023-04-16T14:13:55.588Z,20.48
2023-04-16T14:16:22.231Z,20.47
2023-04-16T14:18:48.787Z,20.46
2023-04-16T14:21:15.662Z,20.46
2023-04-16T14:23:42.286Z,20.45
2023-04-16T14:26:08.892Z,20.44
2023-04-16T14:28:35.799Z,20.43
2023-04-16T14:31:02.523Z,20.43
2023-04-16T14:33:29.260Z,20.43
2023-04-16T14:35:55.951Z,20.42
2023-04-16T14:38:22.513Z,20.42
2023-04-16T14:40:49.055Z,20.42
2023-04-16T14:43:15.666Z,20.41
2023-04-16T14:45:42.300Z,20.41
2023-04-16T14:48:08.854Z,20.41
2023-04-16T14:50:38.938Z,20.42
2023-04-16T14:53:05.972Z,20.42
2023-04-16T14:55:32.813Z,20.43
2023-04-16T14:57:59.911Z,20.43
2023-04-16T15:00:27.358Z,20.46
2023-04-16T15:02:54.766Z,20.48
2023-04-16T15:05:22.143Z,20.49
2023-04-16T15:07:48.670Z,20.50
2023-04-16T15:10:15.499Z,20.51
2023-04-16T15:12:42.183Z,20.52
2023-04-16T15:15:09.539Z,20.53
2023-04-16T15:17:36.381Z,20.54
2023-04-16T15:20:05.923Z,20.55
2023-04-16T15:22:32.549Z,20.58
2023-04-16T15:24:59.029Z,20.58
2023-04-16T15:27:25.868Z,20.59
2023-04-16T15:29:53.924Z,20.59
2023-04-16T15:32:20.725Z,20.60
2023-04-16T15:34:47.288Z,20.62
2023-04-16T15:37:13.909Z,20.61
2023-04-16T15:39:40.786Z,20.61
2023-04-16T15:42:08.106Z,20.59
2023-04-16T15:44:34.779Z,20.57
2023-04-16T15:47:01.306Z,20.56
2023-04-16T15:49:27.995Z,20.55
2023-04-16T15:51:55.526Z,20.53
2023-04-16T15:54:22.422Z,20.53
2023-04-16T15:56:49.083Z,20.55
2023-04-16T15:59:16.050Z,20.55
2023-04-16T16:01:42.582Z,20.55
2023-04-16T16:04:09.586Z,20.55
2023-04-16T16:06:38.074Z,20.56
2023-04-16T16:09:04.995Z,20.56
2023-04-16T16:11:32.628Z,20.56
2023-04-16T16:14:01.367Z,20.57
2023-04-16T16:16:28.581Z,20.57
2023-04-16T16:18:55.317Z,20.57
2023-04-16T16:21:22.034Z,20.56
2023-04-16T16:23:48.599Z,20.57
2023-04-16T16:26:15.157Z,20.55
2023-04-16T16:28:43.776Z,20.54
2023-04-16T16:31:12.167Z,20.56
2023-04-16T16:33:40.396Z,20.56
2023-04-16T16:36:10.905Z,20.51
2023-04-16T16:38:37.999Z,20.50
2023-04-16T16:41:04.594Z,20.50
2023-04-16T16:43:31.390Z,20.50
2023-04-16T16:45:57.933Z,20.50
2023-04-16T16:48:24.500Z,20.50
2023-04-16T16:50:50.996Z,20.49
2023-04-16T16:53:17.602Z,20.49
2023-04-16T16:55:44.213Z,20.49
2023-04-16T16:58:11.206Z,20.48
2023-04-16T17:00:38.104Z,20.48
2023-04-16T17:03:04.771Z,20.47
2023-04-16T17:05:31.664Z,20.47
2023-04-16T17:07:58.697Z,20.46
2023-04-16T17:10:25.353Z,20.46
2023-04-16T17:12:51.938Z,20.44
2023-04-16T17:15:21.391Z,20.44
2023-04-16T17:17:48.560Z,20.44
2023-04-16T17:20:15.722Z,20.43
2023-04-16T17:22:42.637Z,20.43
2023-04-16T17:25:09.514Z,20.42
2023-04-16T17:27:36.247Z,20.42
2023-04-16T17:30:04.964Z,20.40
2023-04-16T17:32:32.714Z,20.40
2023-04-16T17:35:00.454Z,20.41
2023-04-16T17:37:27.380Z,20.39
2023-04-16T17:39:53.963Z,20.39
2023-04-16T17:42:20.606Z,20.39
2023-04-16T17:44:47.304Z,20.40
2023-04-16T17:47:13.831Z,20.41
2023-04-16T17:49:40.600Z,20.42
2023-04-16T17:52:07.280Z,20.42
2023-04-16T17:54:33.816Z,20.43
2023-04-16T17:57:00.595Z,20.44
2023-04-16T17:59:27.481Z,20.43
2023-04-16T18:04:21.528Z,20.45
2023-04-16T18:06:48.429Z,20.46
2023-04-16T18:09:15.460Z,20.46
2023-04-16T18:11:42.103Z,20.47
2023-04-16T18:14:10.008Z,20.48
2023-04-16T18:16:36.781Z,20.48
2023-04-16T18:19:03.347Z,20.49
2023-04-16T18:21:30.493Z,20.49
2023-04-16T18:23:57.687Z,20.50
2023-04-16T18:26:25.324Z,20.50
2023-04-16T18:28:52.146Z,20.50
2023-04-16T18:31:21.168Z,20.50
2023-04-16T18:33:56.822Z,20.51
2023-04-16T18:36:24.453Z,20.51
2023-04-16T18:39:01.127Z,20.50
2023-04-16T18:41:28.681Z,20.51
2023-04-16T18:43:55.392Z,20.51
2023-04-16T18:46:21.971Z,20.51
2023-04-16T18:48:48.667Z,20.51
2023-04-16T18:51:16.579Z,20.52
2023-04-16T18:53:45.390Z,20.52
2023-04-16T18:56:12.241Z,20.51
2023-04-16T18:58:38.870Z,20.49
2023-04-16T19:01:07.820Z,20.46
2023-04-16T19:03:34.699Z,20.44
2023-04-16T19:06:01.592Z,20.42
2023-04-16T19:08:28.164Z,20.41
2023-04-16T19:10:54.736Z,20.39
2023-04-16T19:13:21.259Z,20.37
2023-04-16T19:15:47.931Z,20.36
2023-04-16T19:18:14.555Z,20.34
2023-04-16T19:20:41.129Z,20.32
2023-04-16T19:23:09.193Z,20.29
2023-04-16T19:25:38.772Z,20.26
2023-04-16T19:28:05.457Z,20.24
2023-04-16T19:30:32.028Z,20.21
2023-04-16T19:32:58.793Z,20.20
2023-04-16T19:35:25.711Z,20.17
2023-04-16T19:37:52.251Z,20.16
2023-04-16T19:40:18.942Z,20.17
2023-04-16T19:42:45.633Z,20.15
2023-04-16T19:45:12.333Z,20.15
2023-04-16T19:47:39.059Z,20.13
2023-04-16T19:50:06.429Z,20.13
2023-04-16T19:52:38.610Z,20.13
2023-04-16T19:55:06.629Z,20.11
2023-04-16T19:57:33.328Z,20.09
2023-04-16T20:00:00.107Z,20.08
2023-04-16T20:02:26.937Z,20.06
2023-04-16T20:04:53.626Z,20.04
2023-04-16T20:07:20.550Z,20.03
2023-04-16T20:09:47.233Z,20.00
2023-04-16T20:12:14.399Z,19.99
2023-04-16T20:14:41.947Z,19.95
2023-04-16T20:17:10.075Z,19.93
2023-04-16T20:19:40.351Z,19.89
2023-04-16T20:22:07.045Z,19.87
2023-04-16T20:24:34.329Z,19.85
2023-04-16T20:27:01.731Z,19.84
2023-04-16T20:29:28.402Z,19.82
2023-04-16T20:31:54.950Z,19.79
2023-04-16T20:34:21.466Z,19.77
2023-04-16T20:36:48.122Z,19.76
2023-04-16T20:39:14.753Z,19.73
2023-04-16T20:41:44.136Z,19.71
2023-04-16T20:44:18.037Z,19.68
2023-04-16T20:46:49.407Z,19.66
2023-04-16T20:49:17.600Z,19.65
2023-04-16T20:51:44.221Z,19.62
2023-04-16T20:54:10.958Z,19.61
2023-04-16T20:56:37.459Z,19.57
2023-04-16T20:59:04.032Z,19.55
2023-04-16T21:01:30.722Z,19.53
2023-04-16T21:03:57.638Z,19.51
2023-04-16T21:06:24.353Z,19.49
2023-04-16T21:08:51.130Z,19.47
2023-04-16T21:11:17.634Z,19.45
2023-04-16T21:13:44.288Z,19.43
2023-04-16T21:16:12.374Z,19.42
2023-04-16T21:18:39.132Z,19.41
2023-04-16T21:21:05.946Z,19.39
2023-04-16T21:23:32.588Z,19.36
2023-04-16T21:25:59.119Z,19.35
2023-04-16T21:28:25.787Z,19.33
2023-04-16T21:30:53.072Z,19.33
2023-04-16T21:33:19.564Z,19.30
2023-04-16T21:35:51.236Z,19.28
2023-04-16T21:38:17.849Z,19.26
2023-04-16T21:40:50.665Z,19.24
2023-04-16T21:43:17.889Z,19.23
2023-04-16T21:45:44.486Z,19.21
2023-04-16T21:48:11.103Z,19.19
2023-04-16T21:50:38.091Z,19.18
2023-04-16T21:53:06.415Z,19.17
2023-04-16T21:55:34.652Z,19.14
2023-04-16T21:58:01.683Z,19.13
2023-04-16T22:00:28.386Z,19.12
2023-04-16T22:03:00.111Z,19.11
2023-04-16T22:05:26.924Z,19.09
2023-04-16T22:07:53.456Z,19.08
2023-04-16T22:10:20.311Z,19.06
2023-04-16T22:12:46.858Z,19.06
2023-04-16T22:15:13.911Z,19.05
2023-04-16T22:17:40.931Z,19.04
2023-04-16T22:20:14.645Z,19.02
2023-04-16T22:22:41.842Z,19.00
2023-04-16T22:25:08.592Z,19.03
2023-04-16T22:27:35.425Z,18.99
2023-04-16T22:30:02.872Z,18.98
2023-04-16T22:32:30.320Z,18.96
2023-04-16T22:34:57.116Z,18.95
2023-04-16T22:37:23.615Z,18.93
2023-04-16T22:39:50.265Z,18.91
2023-04-16T22:42:16.776Z,18.91
2023-04-16T22:44:43.279Z,18.91
2023-04-16T22:47:09.822Z,18.90
2023-04-16T22:49:36.355Z,18.88
2023-04-16T22:52:03.058Z,18.87
2023-04-16T22:54:30.232Z,18.86
2023-04-16T22:56:57.559Z,18.84
2023-04-16T22:59:24.625Z,18.85
2023-04-16T23:01:52.092Z,18.83
2023-04-16T23:04:18.821Z,18.82
2023-04-16T23:06:46.390Z,18.81
2023-04-16T23:09:13.165Z,18.80
2023-04-16T23:11:39.960Z,18.80
2023-04-16T23:14:06.490Z,18.79
2023-04-16T23:16:33.043Z,18.79
2023-04-16T23:18:59.651Z,18.77
2023-04-16T23:21:26.212Z,18.77
2023-04-16T23:23:52.736Z,18.74
2023-04-16T23:26:19.246Z,18.74
2023-04-16T23:28:45.819Z,18.74
2023-04-16T23:31:12.381Z,18.73
2023-04-16T23:33:38.961Z,18.73
2023-04-16T23:36:08.151Z,18.71
2023-04-16T23:38:34.664Z,18.70
2023-04-16T23:41:01.161Z,18.69
2023-04-16T23:43:27.703Z,18.69
2023-04-16T23:45:54.273Z,18.69
2023-04-16T23:48:20.963Z,18.67
2023-04-16T23:50:47.522Z,18.67
2023-04-16T23:53:14.065Z,18.65
2023-04-16T23:55:40.599Z,18.64
2023-04-16T23:58:07.402Z,18.64
